Latest Weather Observations for Parafield

IDS60901

Issued at 6:11 am CDT Thursday 28 October 2021 (issued every 10 minutes, with the page automatically refreshed every 10 minutes)

About weather observations | Map of Adelaide area stations | Latest observations for Adelaide area | Other Formats
Station Details ID: 023013 Name: PARAFIELD AIRPORT Lat: -34.80 Lon: 138.63 Height: 9.5 m
Data from the previous 72 hours. | See also: Recent months at Parafield
Date/Time
CDT
Temp
°C
App
Temp
°C
Dew
Point
°C
Rel
Hum
%
Delta-T
°C
Wind Press
QNH
hPa
Press
MSL
hPa
Rain since
9am
mm
Dir  Spd
km/h
Gust
km/h
Spd
kts
Gust
kts
28/06:00am 14.2 12.6 11.7 85 1.3 SE 11 15 6 8 1006.4 1006.4 2.6
28/05:30am 14.8 12.3 12.3 85 1.4 S 17 22 9 12 1007.3 1007.3 2.6
28/05:00am 14.8 13.3 11.8 82 1.6 S 11 15 6 8 1006.6 1006.6 2.6
28/04:30am 15.1 14.1 12.2 83 1.6 SE 9 15 5 8 1006.1 1006.1 2.6
28/04:00am 14.7 12.7 12.6 87 1.1 ENE 15 19 8 10 1006.6 1006.6 2.6
28/03:30am 15.0 13.5 13.0 88 1.1 NNE 13 19 7 10 1007.3 1007.3 2.6
28/03:00am 14.5 13.1 13.4 93 0.6 NE 13 15 7 8 1007.4 1007.4 2.6
28/02:30am 13.8 13.5 12.7 93 0.6 E 6 11 3 6 1007.6 1007.6 2.6
28/02:00am 15.1 14.9 13.5 90 0.9 W 7 11 4 6 1008.5 1008.5 2.6
28/01:30am 15.2 15.0 13.6 90 0.9 NNW 7 9 4 5 1008.6 1008.6 2.6
28/01:00am 15.7 16.9 13.9 89 1.0 CALM 0 0 0 0 1009.2 1009.2 2.6
28/12:30am 15.8 15.7 13.3 85 1.4 SSW 6 7 3 4 1009.4 1009.4 2.6
28/12:00am 16.8 16.3 13.7 82 1.8 SW 9 11 5 6 1009.6 1009.6 2.6
 
Date/Time
CDT
Temp
°C
App
Temp
°C
Dew
Point
°C
Rel
Hum
%
Delta-T
°C
Wind Press
QNH
hPa
Press
MSL
hPa
Rain since
9am
mm
Dir  Spd
km/h
Gust
km/h
Spd
kts
Gust
kts
27/11:30pm 16.9 16.7 13.6 81 1.9 SW 7 11 4 6 1009.7 1009.7 2.6
27/11:00pm 17.4 17.2 13.7 79 2.1 SW 7 9 4 5 1009.6 1009.6 2.6
27/10:30pm 17.5 16.9 13.6 78 2.2 SSW 9 13 5 7 1009.7 1009.7 2.6
27/10:00pm 17.8 16.6 13.9 78 2.2 SSW 13 19 7 10 1009.6 1009.6 2.6
27/09:30pm 18.8 16.8 13.9 73 2.8 SSW 17 24 9 13 1009.6 1009.6 2.6
27/09:00pm 20.5 19.2 12.5 60 4.5 S 11 11 6 6 1008.7 1008.7 2.6
27/08:30pm 21.0 20.6 12.9 60 4.6 SW 7 13 4 7 1008.3 1008.3 2.6
27/08:00pm 24.3 23.8 10.6 42 7.6 WNW 4 7 2 4 1008.1 1008.1 2.6
27/07:30pm 25.7 22.7 9.1 35 9.1 NNW 15 24 8 13 1007.7 1007.7 2.6
27/07:00pm 26.8 23.9 9.6 34 9.5 WNW 15 19 8 10 1007.4 1007.4 2.6
27/06:30pm 27.9 25.1 10.1 33 10.0 WNW 15 20 8 11 1007.2 1007.2 2.6
27/06:00pm 28.4 26.3 12.3 37 9.4 WSW 15 20 8 11 1007.1 1007.1 2.6
27/05:30pm 28.7 27.4 12.6 37 9.5 NW 11 17 6 9 1007.1 1007.1 2.6
27/05:00pm 28.0 26.8 12.8 39 8.9 NNE 11 20 6 11 1007.1 1007.1 2.6
27/04:30pm 27.1 25.2 14.1 44 7.8 N 17 26 9 14 1007.3 1007.3 2.6
27/04:00pm 26.8 24.2 13.2 43 8.0 N 19 30 10 16 1007.4 1007.4 2.6
27/03:30pm 25.9 22.9 13.7 47 7.2 NNE 22 33 12 18 1007.7 1007.7 2.6
27/03:00pm 24.7 22.2 13.6 50 6.5 NNE 19 28 10 15 1008.1 1008.1 2.6
27/02:30pm 24.8 23.5 15.7 57 5.5 NNE 17 26 9 14 1008.8 1008.8 2.6
27/02:00pm 22.8 21.8 14.6 60 4.8 NE 13 17 7 9 1009.5 1009.5 2.4
27/01:30pm 21.4 21.2 16.8 75 2.8 NNE 13 15 7 8 1010.1 1010.1 2.4
27/01:00pm 19.5 19.1 14.1 71 3.1 NNE 9 11 5 6 1009.6 1009.6 2.4
27/12:30pm 18.4 16.3 15.1 81 1.9 E 20 32 11 17 1009.1 1009.1 2.4
27/12:08pm 17.7 17.1 14.6 82 1.8 SSW 11 28 6 15 1010.3 1010.3 2.4
27/12:06pm 17.8 17.6 14.7 82 1.8 SW 9 26 5 14 1011.3 1011.3 2.4
27/12:00pm 17.7 17.3 14.2 80 2.0 WSW 9 15 5 8 1013.4 1013.4 2.4
27/11:52am 17.7 17.1 13.6 77 2.3 WNW 9 20 5 11 1013.5 1013.5 1.8
27/11:32am 18.7 12.8 11.0 61 4.2 WNW 33 52 18 28 1013.9 1013.9 0.0
27/11:30am 18.9 12.4 10.5 58 4.5 WNW 35 52 19 28 1013.8 1013.8 0.0
27/11:14am 23.8 16.3 1.4 23 10.5 NW 30 48 16 26 1012.5 1012.5 0.0
27/11:00am 24.9 18.1 -1.8 17 11.9 NNW 24 39 13 21 1011.5 1011.5 0.0
27/10:58am 24.9 19.0 -1.0 18 11.7 NNW 20 39 11 21 1011.4 1011.4 0.0
27/10:30am 24.7 20.6 4.5 27 10.1 N 15 20 8 11 1011.0 1011.0 0.0
27/10:00am 23.1 19.3 2.0 25 9.9 NW 11 17 6 9 1011.2 1011.2 0.0
27/09:30am 25.4 19.3 0.1 19 11.7 NW 22 37 12 20 1011.4 1011.4 0.0
27/09:00am 26.2 19.2 -3.4 14 12.9 N 24 35 13 19 1009.6 1009.6 0.0
27/08:30am 26.0 17.9 -3.5 14 12.8 NNE 30 43 16 23 1008.6 1008.6 0.0
27/08:00am 24.9 16.9 -5.4 13 12.6 NNE 28 37 15 20 1007.9 1007.9 0.0
27/07:30am 24.4 17.5 -5.8 13 12.4 NE 22 33 12 18 1008.1 1008.1 0.0
27/07:00am 23.2 16.0 -5.7 14 11.7 NNE 24 35 13 19 1007.8 1007.8 0.0
27/06:30am 22.1 14.9 -5.7 15 11.2 NE 24 35 13 19 1007.7 1007.7 0.0
27/06:00am 22.9 15.2 -6.9 13 11.8 NE 26 33 14 18 1007.7 1007.7 0.0
27/05:30am 22.5 15.2 -6.3 14 11.5 NE 24 32 13 17 1007.9 1007.9 0.0
27/05:00am 22.6 15.3 -6.2 14 11.5 NNE 24 28 13 15 1008.0 1008.0 0.0
27/04:30am 22.8 15.1 -7.0 13 11.8 NNE 26 37 14 20 1007.9 1007.9 0.0
27/04:00am 23.5 15.3 -7.5 12 12.2 NNE 28 44 15 24 1007.8 1007.8 0.0
27/03:30am 23.3 15.6 -6.6 13 12.0 NE 26 35 14 19 1007.6 1007.6 0.0
27/03:00am 23.5 15.3 -7.5 12 12.2 NE 28 41 15 22 1008.1 1008.1 0.0
27/02:30am 22.9 15.9 -6.9 13 11.8 NE 22 30 12 16 1008.5 1008.5 0.0
27/02:00am 22.7 15.3 -7.1 13 11.7 NE 24 33 13 18 1008.9 1008.9 0.0
27/01:30am 23.4 15.7 -6.5 13 12.0 NE 26 37 14 20 1009.5 1009.5 0.0
27/01:00am 23.7 16.0 -6.3 13 12.1 NE 26 37 14 20 1009.9 1009.9 0.0
27/12:30am 24.4 16.0 -5.8 13 12.4 NE 30 41 16 22 1010.0 1010.0 0.0
27/12:00am 23.7 16.2 -4.4 15 11.8 NE 26 33 14 18 1010.4 1010.4 0.0
 
Date/Time
CDT
Temp
°C
App
Temp
°C
Dew
Point
°C
Rel
Hum
%
Delta-T
°C
Wind Press
QNH
hPa
Press
MSL
hPa
Rain since
9am
mm
Dir  Spd
km/h
Gust
km/h
Spd
kts
Gust
kts
26/11:30pm 23.9 16.4 -4.3 15 11.9 NE 26 33 14 18 1010.6 1010.6 0.0
26/11:00pm 23.2 16.6 -3.2 17 11.3 NE 22 30 12 16 1011.0 1011.0 0.0
26/10:30pm 23.5 16.9 -2.9 17 11.4 NE 22 30 12 16 1011.1 1011.1 0.0
26/10:00pm 22.1 16.6 -1.9 20 10.4 NE 17 22 9 12 1011.4 1011.4 0.0
26/09:30pm 22.3 16.9 -1.1 21 10.3 NE 17 22 9 12 1011.4 1011.4 0.0
26/09:00pm 20.2 15.5 0.6 27 8.8 NE 15 19 8 10 1011.3 1011.3 0.0
26/08:30pm 21.6 17.2 0.2 24 9.6 NE 13 15 7 8 1011.3 1011.3 0.0
26/08:00pm 22.8 19.5 2.3 26 9.7 N 9 11 5 6 1011.2 1011.2 0.0
26/07:30pm 25.3 22.9 2.1 22 11.1 NE 4 13 2 7 1011.0 1011.0 0.0
26/07:00pm 26.4 22.7 2.3 21 11.7 WSW 11 15 6 8 1010.8 1010.8 0.0
26/06:30pm 28.2 23.7 2.4 19 12.7 WSW 15 19 8 10 1010.9 1010.9 0.0
26/06:00pm 29.6 25.6 0.2 15 14.1 NNW 11 26 6 14 1010.9 1010.9 0.0
26/05:30pm 29.9 24.1 -1.5 13 14.6 NE 19 30 10 16 1010.8 1010.8 0.0
26/05:00pm 29.7 23.7 -1.6 13 14.5 ENE 20 28 11 15 1010.9 1010.9 0.0
26/04:30pm 29.9 23.5 -1.5 13 14.6 NE 22 35 12 19 1011.1 1011.1 0.0
26/04:00pm 29.4 22.5 -2.9 12 14.6 NNE 24 35 13 19 1011.5 1011.5 0.0
26/03:30pm 29.4 23.1 -0.9 14 14.2 NE 22 32 12 17 1011.9 1011.9 0.0
26/03:00pm 29.2 22.5 -1.0 14 14.1 NE 24 37 13 20 1012.4 1012.4 0.0
26/02:37pm 29.3 22.8 0.0 15 13.9 NE 24 54 13 29 1012.8 1012.8 0.0
26/02:30pm 28.9 22.9 -1.2 14 14.0 NE 20 33 11 18 1012.8 1012.8 0.0
26/02:00pm 28.2 22.5 -0.9 15 13.5 NNE 19 32 10 17 1013.5 1013.5 0.0
26/01:30pm 28.1 21.9 -0.1 16 13.3 NE 22 39 12 21 1013.8 1013.8 0.0
26/01:00pm 27.4 21.6 0.2 17 12.8 NE 20 32 11 17 1014.3 1014.3 0.0
26/12:30pm 27.5 21.5 1.1 18 12.6 NE 22 32 12 17 1014.8 1014.8 0.0
26/12:00pm 26.7 20.6 0.4 18 12.3 NE 22 32 12 17 1015.3 1015.3 0.0
26/11:30am 26.1 20.0 0.7 19 11.9 NNE 22 32 12 17 1015.8 1015.8 0.0
26/11:00am 24.2 17.6 -0.2 20 11.1 NE 24 35 13 19 1016.1 1016.1 0.0
26/10:30am 24.2 17.7 0.5 21 10.9 NNE 24 32 13 17 1016.3 1016.3 0.0
26/10:00am 23.1 15.9 0.9 23 10.2 NNE 28 39 15 21 1016.6 1016.6 0.0
26/09:30am 22.5 15.3 0.4 23 10.0 NNE 28 35 15 19 1016.7 1016.7 0.0
26/09:00am 21.8 14.9 0.4 24 9.7 NE 26 35 14 19 1016.7 1016.7 0.0
26/08:30am 20.5 14.7 -0.2 25 9.1 NE 20 28 11 15 1016.8 1016.8 0.0
26/08:00am 18.8 11.7 -1.1 26 8.5 NE 26 33 14 18 1016.9 1016.9 0.0
26/07:30am 17.4 10.7 -0.8 29 7.7 NE 24 32 13 17 1016.8 1016.8 0.0
26/07:00am 16.2 10.0 -0.5 32 7.1 NE 22 30 12 16 1016.8 1016.8 0.0
26/06:30am 15.0 9.2 -0.3 35 6.4 NE 20 26 11 14 1016.6 1016.6 0.0
26/06:00am 14.9 9.1 0.0 36 6.3 NE 20 26 11 14 1016.4 1016.4 0.0
26/05:30am 14.6 8.9 0.5 38 6.0 NE 20 28 11 15 1016.3 1016.3 0.0
26/05:00am 14.0 8.9 1.0 41 5.6 NE 17 22 9 12 1016.4 1016.4 0.0
26/04:30am 14.3 9.2 0.6 39 5.8 NE 17 24 9 13 1016.5 1016.5 0.0
26/04:00am 14.7 9.6 0.5 38 6.0 ENE 17 24 9 13 1016.3 1016.3 0.0
26/03:30am 15.1 9.7 1.3 39 6.0 ENE 19 24 10 13 1016.3 1016.3 0.0
26/03:00am 14.5 9.1 2.4 44 5.3 ENE 20 26 11 14 1016.5 1016.5 0.0
26/02:30am 14.5 9.4 3.0 46 5.1 ENE 19 24 10 13 1016.7 1016.7 0.0
26/02:00am 14.9 9.2 3.1 45 5.3 ENE 22 32 12 17 1016.9 1016.9 0.0
26/01:30am 15.1 9.0 2.6 43 5.6 ENE 24 32 13 17 1017.2 1017.2 0.0
26/01:00am 15.5 9.8 3.0 43 5.7 ENE 22 30 12 16 1017.5 1017.5 0.0
26/12:30am 14.9 10.3 3.7 47 5.1 E 17 26 9 14 1017.8 1017.8 0.0
26/12:00am 14.9 10.0 4.0 48 5.0 E 19 24 10 13 1018.0 1018.0 0.0
 
Date/Time
CDT
Temp
°C
App
Temp
°C
Dew
Point
°C
Rel
Hum
%
Delta-T
°C
Wind Press
QNH
hPa
Press
MSL
hPa
Rain since
9am
mm
Dir  Spd
km/h
Gust
km/h
Spd
kts
Gust
kts
25/11:30pm 15.3 9.8 4.1 47 5.2 E 22 32 12 17 1017.9 1017.9 0.0
25/11:00pm 15.6 10.0 3.7 45 5.5 E 22 30 12 16 1018.1 1018.1 0.0
25/10:30pm 16.1 9.8 3.9 44 5.6 ESE 26 33 14 18 1018.2 1018.2 0.0
25/10:00pm 16.1 10.6 3.9 44 5.6 ESE 22 30 12 16 1018.3 1018.3 0.0
25/09:30pm 16.4 10.9 3.8 43 5.8 ESE 22 32 12 17 1018.1 1018.1 0.0
25/09:00pm 16.7 11.5 3.7 42 6.0 ESE 20 26 11 14 1018.0 1018.0 0.0
25/08:30pm 17.0 11.9 3.3 40 6.3 ESE 19 24 10 13 1017.8 1017.8 0.0
25/08:00pm 15.5 12.5 6.2 54 4.5 S 11 13 6 7 1017.8 1017.8 0.0
25/07:30pm 17.1 13.3 6.0 48 5.4 S 15 15 8 8 1017.5 1017.5 0.0
25/07:00pm 19.4 16.1 6.2 42 6.6 SSW 13 15 7 8 1017.5 1017.5 0.0
25/06:30pm 20.6 16.3 5.4 37 7.5 SW 17 20 9 11 1017.4 1017.4 0.0
25/06:00pm 21.3 17.4 5.2 35 7.9 SSW 15 20 8 11 1017.4 1017.4 0.0
25/05:30pm 21.4 17.1 5.3 35 8.0 SSW 17 20 9 11 1017.4 1017.4 0.0
25/05:00pm 21.9 17.9 6.6 37 7.8 SSW 17 22 9 12 1017.7 1017.7 0.0
25/04:30pm 21.8 17.9 5.3 34 8.2 SSW 15 22 8 12 1018.0 1018.0 0.0
25/04:00pm 22.1 17.9 5.9 35 8.2 SW 17 22 9 12 1018.3 1018.3 0.0
25/03:30pm 22.0 18.7 2.7 28 9.1 SSW 9 17 5 9 1018.6 1018.6 0.0
25/03:00pm 21.4 18.6 3.1 30 8.7 SE 7 13 4 7 1019.1 1019.1 0.0
25/02:30pm 21.5 18.4 3.7 31 8.5 W 9 15 5 8 1019.6 1019.6 0.0
25/02:00pm 20.7 17.6 3.4 32 8.2 NNW 9 20 5 11 1020.2 1020.2 0.0
25/01:30pm 20.5 17.9 4.1 34 7.9 NNE 7 19 4 10 1020.8 1020.8 0.0
25/01:00pm 19.7 16.0 4.6 37 7.3 NE 13 22 7 12 1021.3 1021.3 0.0
25/12:30pm 18.9 15.6 4.3 38 6.9 NNE 11 17 6 9 1021.9 1021.8 0.0
25/12:00pm 18.5 15.6 4.7 40 6.6 NE 9 17 5 9 1022.5 1022.4 0.0
25/11:30am 18.0 14.0 4.9 42 6.3 ENE 15 24 8 13 1022.9 1022.8 0.0
25/11:00am 17.2 13.2 4.9 44 5.9 E 15 24 8 13 1023.3 1023.2 0.0
25/10:30am 17.3 12.5 5.6 46 5.6 E 20 28 11 15 1023.6 1023.5 0.0
25/10:00am 16.1 11.1 4.8 47 5.3 E 20 26 11 14 1023.7 1023.6 0.0
25/09:30am 15.0 9.3 5.0 51 4.7 E 24 28 13 15 1024.1 1024.0 0.0
25/09:00am 14.0 7.2 4.9 54 4.2 E 30 39 16 21 1024.0 1023.9 0.0
25/08:30am 12.9 6.8 4.6 57 3.8 E 26 39 14 21 1024.0 1023.9 0.0
25/08:00am 12.3 6.9 4.3 58 3.6 E 22 30 12 16 1023.8 1023.7 0.0
25/07:30am 11.3 6.2 4.3 62 3.1 E 20 28 11 15 1023.7 1023.6 0.0
25/07:00am 10.2 5.4 4.8 69 2.4 E 19 28 10 15 1023.3 1023.2 0.0
25/06:30am 9.7 3.5 4.5 70 2.3 ESE 26 39 14 21 1022.8 1022.7 0.0

Latest Capital City Observations: Canberra | Sydney | Melbourne | Brisbane | Adelaide | Perth | Hobart | Darwin

Other formats

Comma delimited format used in spreadsheet applications
http://www.bom.gov.au/fwo/IDS60901/IDS60901.95677.axf

JavaScript Object Notation format (JSON) in row-major order
http://www.bom.gov.au/fwo/IDS60901/IDS60901.95677.json

Data quality

Most of these data are generated automatically and are frequently updated. Quality checks on data are not normally performed. It is possible for incorrect values to appear. Refer to information at About Latest Weather Observations and please check the disclaimer before using these data.